sensor_id;sensor_type;location;lat;lon;timestamp;pressure;altitude;pressure_sealevel;temperature;humidity
36234;BME280;43467;50.890;5.982;2022-07-10T00:01:21;101446.56;;;17.20;55.12
36234;BME280;43467;50.890;5.982;2022-07-10T00:03:46;101450.97;;;17.22;54.79
36234;BME280;43467;50.890;5.982;2022-07-10T00:06:11;101447.09;;;17.11;55.29
36234;BME280;43467;50.890;5.982;2022-07-10T00:08:38;101448.72;;;17.14;55.40
36234;BME280;43467;50.890;5.982;2022-07-10T00:11:03;101445.25;;;17.12;55.91
36234;BME280;43467;50.890;5.982;2022-07-10T00:13:28;101444.66;;;17.07;55.79
36234;BME280;43467;50.890;5.982;2022-07-10T00:15:54;101441.97;;;17.07;55.60
36234;BME280;43467;50.890;5.982;2022-07-10T00:18:19;101442.38;;;16.99;55.72
36234;BME280;43467;50.890;5.982;2022-07-10T00:20:44;101446.00;;;16.98;55.84
36234;BME280;43467;50.890;5.982;2022-07-10T00:23:10;101441.19;;;17.05;55.80
36234;BME280;43467;50.890;5.982;2022-07-10T00:25:35;101436.41;;;16.94;56.32
36234;BME280;43467;50.890;5.982;2022-07-10T00:28:00;101445.53;;;16.90;56.73
36234;BME280;43467;50.890;5.982;2022-07-10T00:30:26;101439.72;;;16.82;56.90
36234;BME280;43467;50.890;5.982;2022-07-10T00:32:51;101443.41;;;16.80;57.19
36234;BME280;43467;50.890;5.982;2022-07-10T00:35:17;101433.75;;;16.77;57.22
36234;BME280;43467;50.890;5.982;2022-07-10T00:37:42;101436.13;;;16.83;56.64
36234;BME280;43467;50.890;5.982;2022-07-10T00:40:08;101435.78;;;16.89;57.07
36234;BME280;43467;50.890;5.982;2022-07-10T00:42:33;101427.06;;;16.86;56.73
36234;BME280;43467;50.890;5.982;2022-07-10T00:44:59;101428.09;;;16.83;57.10
36234;BME280;43467;50.890;5.982;2022-07-10T00:47:24;101434.91;;;16.89;56.85
36234;BME280;43467;50.890;5.982;2022-07-10T00:49:50;101425.06;;;16.89;56.96
36234;BME280;43467;50.890;5.982;2022-07-10T00:52:17;101432.16;;;16.90;56.86
36234;BME280;43467;50.890;5.982;2022-07-10T00:54:44;101425.78;;;16.93;56.82
36234;BME280;43467;50.890;5.982;2022-07-10T00:57:12;101423.75;;;16.81;57.35
36234;BME280;43467;50.890;5.982;2022-07-10T00:59:37;101422.56;;;16.86;57.41
36234;BME280;43467;50.890;5.982;2022-07-10T01:02:04;101425.25;;;16.86;57.46
36234;BME280;43467;50.890;5.982;2022-07-10T01:04:31;101415.66;;;16.82;57.17
36234;BME280;43467;50.890;5.982;2022-07-10T01:06:56;101415.66;;;16.82;57.12
36234;BME280;43467;50.890;5.982;2022-07-10T01:09:22;101409.84;;;16.74;57.58
36234;BME280;43467;50.890;5.982;2022-07-10T01:11:48;101415.19;;;16.74;57.54
36234;BME280;43467;50.890;5.982;2022-07-10T01:14:15;101405.75;;;16.67;57.71
36234;BME280;43467;50.890;5.982;2022-07-10T01:16:40;101407.19;;;16.57;57.96
36234;BME280;43467;50.890;5.982;2022-07-10T01:19:06;101404.69;;;16.52;57.84
36234;BME280;43467;50.890;5.982;2022-07-10T01:21:36;101397.00;;;16.46;58.25
36234;BME280;43467;50.890;5.982;2022-07-10T01:24:09;101390.09;;;16.42;58.54
36234;BME280;43467;50.890;5.982;2022-07-10T01:26:35;101385.69;;;16.41;58.09
36234;BME280;43467;50.890;5.982;2022-07-10T01:29:06;101380.56;;;16.37;58.62
36234;BME280;43467;50.890;5.982;2022-07-10T01:31:33;101375.00;;;16.41;58.17
36234;BME280;43467;50.890;5.982;2022-07-10T01:34:04;101378.38;;;16.45;57.86
36234;BME280;43467;50.890;5.982;2022-07-10T01:36:30;101385.06;;;16.53;57.73
36234;BME280;43467;50.890;5.982;2022-07-10T01:38:56;101380.72;;;16.51;57.98
36234;BME280;43467;50.890;5.982;2022-07-10T01:41:22;101384.88;;;16.39;58.14
36234;BME280;43467;50.890;5.982;2022-07-10T01:43:48;101387.03;;;16.50;57.87
36234;BME280;43467;50.890;5.982;2022-07-10T01:46:14;101381.44;;;16.54;57.98
36234;BME280;43467;50.890;5.982;2022-07-10T01:48:39;101379.72;;;16.53;57.47
36234;BME280;43467;50.890;5.982;2022-07-10T01:51:05;101377.44;;;16.46;57.82
36234;BME280;43467;50.890;5.982;2022-07-10T01:53:31;101383.72;;;16.45;57.52
36234;BME280;43467;50.890;5.982;2022-07-10T01:55:57;101379.41;;;16.42;57.74
36234;BME280;43467;50.890;5.982;2022-07-10T01:58:23;101377.91;;;16.37;57.88
36234;BME280;43467;50.890;5.982;2022-07-10T02:00:48;101376.16;;;16.36;58.07
36234;BME280;43467;50.890;5.982;2022-07-10T02:03:14;101364.94;;;16.29;58.26
36234;BME280;43467;50.890;5.982;2022-07-10T02:05:58;101364.00;;;16.13;58.64
36234;BME280;43467;50.890;5.982;2022-07-10T02:08:23;101357.78;;;16.12;58.69
36234;BME280;43467;50.890;5.982;2022-07-10T02:10:49;101356.63;;;16.18;58.52
36234;BME280;43467;50.890;5.982;2022-07-10T02:13:14;101363.44;;;16.23;58.51
36234;BME280;43467;50.890;5.982;2022-07-10T02:15:42;101353.84;;;16.19;58.64
36234;BME280;43467;50.890;5.982;2022-07-10T02:18:08;101364.38;;;16.22;58.53
36234;BME280;43467;50.890;5.982;2022-07-10T02:20:33;101367.03;;;16.22;58.60
36234;BME280;43467;50.890;5.982;2022-07-10T02:23:00;101366.97;;;16.24;58.65
36234;BME280;43467;50.890;5.982;2022-07-10T02:25:26;101367.38;;;16.16;58.89
36234;BME280;43467;50.890;5.982;2022-07-10T02:27:51;101356.09;;;16.10;59.21
36234;BME280;43467;50.890;5.982;2022-07-10T02:30:17;101355.97;;;16.13;59.06
36234;BME280;43467;50.890;5.982;2022-07-10T02:32:42;101357.94;;;16.09;59.36
36234;BME280;43467;50.890;5.982;2022-07-10T02:35:08;101356.97;;;16.10;59.16
36234;BME280;43467;50.890;5.982;2022-07-10T02:37:33;101352.59;;;16.09;59.23
36234;BME280;43467;50.890;5.982;2022-07-10T02:39:58;101355.56;;;16.03;59.81
36234;BME280;43467;50.890;5.982;2022-07-10T02:42:24;101354.31;;;16.10;59.40
36234;BME280;43467;50.890;5.982;2022-07-10T02:44:49;101361.38;;;16.11;59.24
36234;BME280;43467;50.890;5.982;2022-07-10T02:47:14;101357.47;;;16.01;59.52
36234;BME280;43467;50.890;5.982;2022-07-10T02:49:40;101367.19;;;16.02;59.52
36234;BME280;43467;50.890;5.982;2022-07-10T02:52:05;101363.31;;;15.91;59.82
36234;BME280;43467;50.890;5.982;2022-07-10T02:54:31;101365.06;;;15.92;59.78
36234;BME280;43467;50.890;5.982;2022-07-10T02:56:56;101356.88;;;15.95;59.72
36234;BME280;43467;50.890;5.982;2022-07-10T02:59:21;101366.69;;;15.94;60.08
36234;BME280;43467;50.890;5.982;2022-07-10T03:01:47;101359.06;;;15.87;60.16
36234;BME280;43467;50.890;5.982;2022-07-10T03:04:12;101357.28;;;15.87;60.34
36234;BME280;43467;50.890;5.982;2022-07-10T03:06:38;101359.09;;;16.04;59.73
36234;BME280;43467;50.890;5.982;2022-07-10T03:09:03;101364.34;;;15.88;60.16
36234;BME280;43467;50.890;5.982;2022-07-10T03:11:29;101363.25;;;15.92;60.34
36234;BME280;43467;50.890;5.982;2022-07-10T03:13:54;101358.19;;;15.86;60.52
36234;BME280;43467;50.890;5.982;2022-07-10T03:16:19;101360.41;;;15.95;60.12
36234;BME280;43467;50.890;5.982;2022-07-10T03:18:45;101358.41;;;16.00;59.83
36234;BME280;43467;50.890;5.982;2022-07-10T03:21:11;101360.97;;;15.85;60.42
36234;BME280;43467;50.890;5.982;2022-07-10T03:23:36;101357.00;;;15.74;60.91
36234;BME280;43467;50.890;5.982;2022-07-10T03:26:04;101357.59;;;15.81;60.46
36234;BME280;43467;50.890;5.982;2022-07-10T03:28:30;101355.41;;;15.89;60.63
36234;BME280;43467;50.890;5.982;2022-07-10T03:30:56;101361.03;;;15.83;60.49
36234;BME280;43467;50.890;5.982;2022-07-10T03:33:21;101350.13;;;15.88;60.45
36234;BME280;43467;50.890;5.982;2022-07-10T03:35:47;101357.53;;;16.00;59.95
36234;BME280;43467;50.890;5.982;2022-07-10T03:38:12;101345.31;;;15.94;60.27
36234;BME280;43467;50.890;5.982;2022-07-10T03:40:37;101359.56;;;15.95;60.49
36234;BME280;43467;50.890;5.982;2022-07-10T03:43:03;101359.25;;;16.01;60.18
36234;BME280;43467;50.890;5.982;2022-07-10T03:45:28;101352.50;;;16.11;59.75
36234;BME280;43467;50.890;5.982;2022-07-10T03:47:53;101363.19;;;16.11;59.87
36234;BME280;43467;50.890;5.982;2022-07-10T03:50:19;101365.69;;;16.14;59.96
36234;BME280;43467;50.890;5.982;2022-07-10T03:52:44;101350.38;;;16.00;59.82
36234;BME280;43467;50.890;5.982;2022-07-10T03:55:11;101368.16;;;16.01;60.04
36234;BME280;43467;50.890;5.982;2022-07-10T03:57:36;101364.19;;;15.91;60.54
36234;BME280;43467;50.890;5.982;2022-07-10T04:00:23;101359.28;;;15.82;60.74
36234;BME280;43467;50.890;5.982;2022-07-10T04:02:57;101360.00;;;15.68;61.45
36234;BME280;43467;50.890;5.982;2022-07-10T04:05:23;101357.31;;;15.68;61.35
36234;BME280;43467;50.890;5.982;2022-07-10T04:07:49;101350.81;;;15.74;61.16
36234;BME280;43467;50.890;5.982;2022-07-10T04:10:14;101357.81;;;15.94;60.50
36234;BME280;43467;50.890;5.982;2022-07-10T04:12:40;101353.06;;;16.00;60.38
36234;BME280;43467;50.890;5.982;2022-07-10T04:15:06;101360.13;;;16.01;60.57
36234;BME280;43467;50.890;5.982;2022-07-10T04:17:31;101348.91;;;16.12;60.16
36234;BME280;43467;50.890;5.982;2022-07-10T04:19:58;101354.00;;;16.16;59.98
36234;BME280;43467;50.890;5.982;2022-07-10T04:22:24;101355.88;;;16.32;59.31
36234;BME280;43467;50.890;5.982;2022-07-10T04:24:50;101355.81;;;16.33;59.09
36234;BME280;43467;50.890;5.982;2022-07-10T04:27:16;101350.31;;;16.19;59.48
36234;BME280;43467;50.890;5.982;2022-07-10T04:29:42;101358.94;;;16.07;60.08
36234;BME280;43467;50.890;5.982;2022-07-10T04:32:08;101359.16;;;16.02;60.39
36234;BME280;43467;50.890;5.982;2022-07-10T04:34:33;101335.75;;;15.90;60.19
36234;BME280;43467;50.890;5.982;2022-07-10T04:36:59;101355.25;;;16.09;60.18
36234;BME280;43467;50.890;5.982;2022-07-10T04:39:25;101359.97;;;16.04;60.48
36234;BME280;43467;50.890;5.982;2022-07-10T04:41:50;101350.84;;;16.08;60.34
36234;BME280;43467;50.890;5.982;2022-07-10T04:44:16;101351.63;;;16.27;59.68
36234;BME280;43467;50.890;5.982;2022-07-10T04:46:41;101355.25;;;16.26;59.79
36234;BME280;43467;50.890;5.982;2022-07-10T04:49:06;101351.34;;;16.34;59.47
36234;BME280;43467;50.890;5.982;2022-07-10T04:51:32;101356.59;;;16.35;59.33
36234;BME280;43467;50.890;5.982;2022-07-10T04:53:57;101352.50;;;16.45;59.17
36234;BME280;43467;50.890;5.982;2022-07-10T04:56:22;101364.78;;;16.49;58.94
36234;BME280;43467;50.890;5.982;2022-07-10T04:58:48;101365.81;;;16.30;59.52
36234;BME280;43467;50.890;5.982;2022-07-10T05:01:13;101366.09;;;16.23;59.83
36234;BME280;43467;50.890;5.982;2022-07-10T05:03:39;101362.50;;;16.24;60.04
36234;BME280;43467;50.890;5.982;2022-07-10T05:06:04;101364.13;;;16.27;59.85
36234;BME280;43467;50.890;5.982;2022-07-10T05:08:29;101372.53;;;16.19;60.40
36234;BME280;43467;50.890;5.982;2022-07-10T05:10:55;101384.16;;;16.18;60.34
36234;BME280;43467;50.890;5.982;2022-07-10T05:13:20;101378.06;;;16.16;60.26
36234;BME280;43467;50.890;5.982;2022-07-10T05:15:46;101379.84;;;16.16;60.37
36234;BME280;43467;50.890;5.982;2022-07-10T05:18:12;101379.31;;;16.09;60.81
36234;BME280;43467;50.890;5.982;2022-07-10T05:20:38;101376.22;;;16.00;60.91
36234;BME280;43467;50.890;5.982;2022-07-10T05:23:07;101377.16;;;15.99;61.30
36234;BME280;43467;50.890;5.982;2022-07-10T05:25:32;101377.88;;;16.02;61.25
36234;BME280;43467;50.890;5.982;2022-07-10T05:27:58;101373.31;;;16.04;61.42
36234;BME280;43467;50.890;5.982;2022-07-10T05:30:23;101386.47;;;16.09;61.32
36234;BME280;43467;50.890;5.982;2022-07-10T05:32:48;101377.41;;;16.11;61.31
36234;BME280;43467;50.890;5.982;2022-07-10T05:35:14;101373.00;;;16.10;61.31
36234;BME280;43467;50.890;5.982;2022-07-10T05:37:40;101369.66;;;16.24;61.09
36234;BME280;43467;50.890;5.982;2022-07-10T05:40:05;101372.41;;;16.05;61.70
36234;BME280;43467;50.890;5.982;2022-07-10T05:42:31;101377.81;;;16.04;61.70
36234;BME280;43467;50.890;5.982;2022-07-10T05:44:57;101372.13;;;15.93;62.14
36234;BME280;43467;50.890;5.982;2022-07-10T05:47:22;101371.28;;;15.92;62.34
36234;BME280;43467;50.890;5.982;2022-07-10T05:49:48;101368.38;;;15.97;62.00
36234;BME280;43467;50.890;5.982;2022-07-10T05:52:13;101370.91;;;16.17;61.88
36234;BME280;43467;50.890;5.982;2022-07-10T05:54:38;101361.22;;;16.32;61.50
36234;BME280;43467;50.890;5.982;2022-07-10T05:57:05;101362.78;;;16.36;61.65
36234;BME280;43467;50.890;5.982;2022-07-10T05:59:33;101374.59;;;16.32;61.06
36234;BME280;43467;50.890;5.982;2022-07-10T06:02:00;101379.31;;;16.44;60.92
36234;BME280;43467;50.890;5.982;2022-07-10T06:04:25;101383.19;;;16.38;61.47
36234;BME280;43467;50.890;5.982;2022-07-10T06:06:50;101375.22;;;16.37;61.44
36234;BME280;43467;50.890;5.982;2022-07-10T06:09:16;101372.16;;;16.44;61.37
36234;BME280;43467;50.890;5.982;2022-07-10T06:11:41;101376.47;;;16.47;61.35
36234;BME280;43467;50.890;5.982;2022-07-10T06:14:09;101372.06;;;16.63;60.60
36234;BME280;43467;50.890;5.982;2022-07-10T06:16:34;101384.34;;;16.67;60.68
36234;BME280;43467;50.890;5.982;2022-07-10T06:19:00;101382.00;;;16.78;60.40
36234;BME280;43467;50.890;5.982;2022-07-10T06:21:25;101386.38;;;16.79;60.83
36234;BME280;43467;50.890;5.982;2022-07-10T06:23:50;101394.19;;;16.66;61.12
36234;BME280;43467;50.890;5.982;2022-07-10T06:26:16;101387.41;;;16.59;61.30
36234;BME280;43467;50.890;5.982;2022-07-10T06:28:41;101400.38;;;16.50;61.54
36234;BME280;43467;50.890;5.982;2022-07-10T06:31:07;101400.53;;;16.47;61.90
36234;BME280;43467;50.890;5.982;2022-07-10T06:33:32;101399.53;;;16.49;61.97
36234;BME280;43467;50.890;5.982;2022-07-10T06:35:58;101401.72;;;16.41;62.32
36234;BME280;43467;50.890;5.982;2022-07-10T06:38:23;101400.47;;;16.48;62.19
36234;BME280;43467;50.890;5.982;2022-07-10T06:40:49;101392.78;;;16.59;61.69
36234;BME280;43467;50.890;5.982;2022-07-10T06:43:15;101394.50;;;16.60;60.97
36234;BME280;43467;50.890;5.982;2022-07-10T06:45:41;101390.50;;;16.69;60.53
36234;BME280;43467;50.890;5.982;2022-07-10T06:48:07;101399.94;;;16.59;60.83
36234;BME280;43467;50.890;5.982;2022-07-10T06:50:33;101395.66;;;16.72;60.59
36234;BME280;43467;50.890;5.982;2022-07-10T06:53:00;101390.47;;;16.86;59.88
36234;BME280;43467;50.890;5.982;2022-07-10T06:55:26;101389.19;;;16.93;60.00
36234;BME280;43467;50.890;5.982;2022-07-10T06:57:52;101392.84;;;17.08;59.70
36234;BME280;43467;50.890;5.982;2022-07-10T07:00:18;101397.63;;;17.18;59.26
36234;BME280;43467;50.890;5.982;2022-07-10T07:02:44;101394.44;;;17.28;59.09
36234;BME280;43467;50.890;5.982;2022-07-10T07:05:10;101403.06;;;17.33;59.00
36234;BME280;43467;50.890;5.982;2022-07-10T07:07:36;101393.03;;;17.20;59.23
36234;BME280;43467;50.890;5.982;2022-07-10T07:10:03;101397.94;;;17.12;59.39
36234;BME280;43467;50.890;5.982;2022-07-10T07:12:29;101391.47;;;17.16;59.37
36234;BME280;43467;50.890;5.982;2022-07-10T07:14:54;101393.22;;;17.17;59.40
36234;BME280;43467;50.890;5.982;2022-07-10T07:17:20;101388.38;;;17.24;58.96
36234;BME280;43467;50.890;5.982;2022-07-10T07:19:51;101396.00;;;17.32;58.76
36234;BME280;43467;50.890;5.982;2022-07-10T07:22:35;101397.63;;;17.34;58.96
36234;BME280;43467;50.890;5.982;2022-07-10T07:25:19;101393.66;;;17.57;58.44
36234;BME280;43467;50.890;5.982;2022-07-10T07:27:44;101397.78;;;17.64;57.84
36234;BME280;43467;50.890;5.982;2022-07-10T07:30:12;101387.41;;;17.74;57.76
36234;BME280;43467;50.890;5.982;2022-07-10T07:32:41;101383.44;;;17.81;57.33
36234;BME280;43467;50.890;5.982;2022-07-10T07:35:07;101393.97;;;17.84;57.26
36234;BME280;43467;50.890;5.982;2022-07-10T07:37:50;101405.22;;;17.59;57.57
36234;BME280;43467;50.890;5.982;2022-07-10T07:40:21;101403.88;;;17.50;56.99
36234;BME280;43467;50.890;5.982;2022-07-10T07:42:53;101392.66;;;17.44;57.32
36234;BME280;43467;50.890;5.982;2022-07-10T07:45:20;101400.50;;;17.47;57.03
36234;BME280;43467;50.890;5.982;2022-07-10T07:47:47;101398.09;;;17.42;57.03
36234;BME280;43467;50.890;5.982;2022-07-10T07:50:15;101403.44;;;17.42;56.74
36234;BME280;43467;50.890;5.982;2022-07-10T07:52:41;101392.66;;;17.44;56.95
36234;BME280;43467;50.890;5.982;2022-07-10T07:55:07;101387.38;;;17.42;56.91
36234;BME280;43467;50.890;5.982;2022-07-10T07:57:32;101395.91;;;17.49;56.69
36234;BME280;43467;50.890;5.982;2022-07-10T07:59:58;101392.91;;;17.55;56.00
36234;BME280;43467;50.890;5.982;2022-07-10T08:02:23;101391.97;;;17.56;55.71
36234;BME280;43467;50.890;5.982;2022-07-10T08:04:48;101387.41;;;17.74;55.59
36234;BME280;43467;50.890;5.982;2022-07-10T08:07:14;101386.63;;;17.87;55.14
36234;BME280;43467;50.890;5.982;2022-07-10T08:09:39;101390.78;;;17.93;54.51
36234;BME280;43467;50.890;5.982;2022-07-10T08:12:05;101393.94;;;17.99;54.55
36234;BME280;43467;50.890;5.982;2022-07-10T08:14:30;101378.22;;;18.09;54.53
36234;BME280;43467;50.890;5.982;2022-07-10T08:16:56;101388.19;;;18.21;54.63
36234;BME280;43467;50.890;5.982;2022-07-10T08:19:21;101385.13;;;18.13;53.59
36234;BME280;43467;50.890;5.982;2022-07-10T08:21:46;101387.00;;;18.11;53.63
36234;BME280;43467;50.890;5.982;2022-07-10T08:24:12;101376.91;;;18.30;53.61
36234;BME280;43467;50.890;5.982;2022-07-10T08:26:37;101380.00;;;18.38;52.97
36234;BME280;43467;50.890;5.982;2022-07-10T08:29:02;101385.34;;;18.38;52.64
36234;BME280;43467;50.890;5.982;2022-07-10T08:31:28;101383.94;;;18.47;52.29
36234;BME280;43467;50.890;5.982;2022-07-10T08:33:53;101379.34;;;18.65;52.44
36234;BME280;43467;50.890;5.982;2022-07-10T08:36:19;101376.69;;;18.79;52.23
36234;BME280;43467;50.890;5.982;2022-07-10T08:38:44;101381.25;;;18.77;52.02
36234;BME280;43467;50.890;5.982;2022-07-10T08:41:11;101382.09;;;18.63;53.29
36234;BME280;43467;50.890;5.982;2022-07-10T08:43:37;101383.47;;;18.70;52.29
36234;BME280;43467;50.890;5.982;2022-07-10T08:46:04;101381.19;;;18.48;52.58
36234;BME280;43467;50.890;5.982;2022-07-10T08:48:32;101388.03;;;18.38;52.84
36234;BME280;43467;50.890;5.982;2022-07-10T08:51:01;101386.81;;;18.44;52.77
36234;BME280;43467;50.890;5.982;2022-07-10T08:53:31;101382.78;;;18.37;53.03
36234;BME280;43467;50.890;5.982;2022-07-10T08:55:57;101320.41;;;18.19;52.95
36234;BME280;43467;50.890;5.982;2022-07-10T08:58:24;101374.63;;;18.54;52.68
36234;BME280;43467;50.890;5.982;2022-07-10T09:00:50;101378.56;;;18.33;53.00
36234;BME280;43467;50.890;5.982;2022-07-10T09:03:15;101380.72;;;18.42;53.05
36234;BME280;43467;50.890;5.982;2022-07-10T09:05:41;101368.91;;;18.44;53.25
36234;BME280;43467;50.890;5.982;2022-07-10T09:08:25;101369.13;;;18.41;53.08
36234;BME280;43467;50.890;5.982;2022-07-10T09:11:12;101358.53;;;18.54;52.76
36234;BME280;43467;50.890;5.982;2022-07-10T09:13:51;101368.97;;;18.58;52.86
36234;BME280;43467;50.890;5.982;2022-07-10T09:16:33;101364.69;;;18.70;52.76
36234;BME280;43467;50.890;5.982;2022-07-10T09:21:44;101365.66;;;18.69;52.60
36234;BME280;43467;50.890;5.982;2022-07-10T09:24:10;101358.56;;;18.82;52.80
36234;BME280;43467;50.890;5.982;2022-07-10T09:26:36;101356.06;;;18.79;52.45
36234;BME280;43467;50.890;5.982;2022-07-10T09:29:20;101354.28;;;18.50;53.36
36234;BME280;43467;50.890;5.982;2022-07-10T09:31:58;101361.03;;;18.71;52.37
36234;BME280;43467;50.890;5.982;2022-07-10T09:37:25;101351.38;;;18.97;52.21
36234;BME280;43467;50.890;5.982;2022-07-10T09:39:55;101354.91;;;18.97;52.24
36234;BME280;43467;50.890;5.982;2022-07-10T09:42:28;101350.50;;;19.11;52.16
36234;BME280;43467;50.890;5.982;2022-07-10T09:52:53;101343.56;;;19.21;52.29
36234;BME280;43467;50.890;5.982;2022-07-10T09:55:20;101353.56;;;19.04;52.60
36234;BME280;43467;50.890;5.982;2022-07-10T09:57:54;101348.69;;;19.11;52.26
36234;BME280;43467;50.890;5.982;2022-07-10T10:00:25;101349.34;;;19.15;52.44
36234;BME280;43467;50.890;5.982;2022-07-10T10:03:02;101348.38;;;19.16;52.73
36234;BME280;43467;50.890;5.982;2022-07-10T10:05:40;101349.69;;;19.37;52.40
36234;BME280;43467;50.890;5.982;2022-07-10T10:08:19;101357.88;;;19.35;52.32
36234;BME280;43467;50.890;5.982;2022-07-10T10:10:46;101356.34;;;19.31;52.21
36234;BME280;43467;50.890;5.982;2022-07-10T10:13:16;101354.69;;;19.29;51.73
36234;BME280;43467;50.890;5.982;2022-07-10T10:15:42;101353.34;;;19.36;52.41
36234;BME280;43467;50.890;5.982;2022-07-10T10:18:08;101354.03;;;19.39;52.00
36234;BME280;43467;50.890;5.982;2022-07-10T10:20:34;101355.59;;;19.43;52.01
36234;BME280;43467;50.890;5.982;2022-07-10T10:23:09;101339.06;;;19.49;52.25
36234;BME280;43467;50.890;5.982;2022-07-10T10:25:36;101351.44;;;19.52;51.87
36234;BME280;43467;50.890;5.982;2022-07-10T10:28:05;101344.53;;;19.48;52.03
36234;BME280;43467;50.890;5.982;2022-07-10T10:30:32;101324.47;;;19.39;52.32
36234;BME280;43467;50.890;5.982;2022-07-10T10:32:58;101343.63;;;19.62;51.90
36234;BME280;43467;50.890;5.982;2022-07-10T10:35:42;101341.75;;;19.49;52.04
36234;BME280;43467;50.890;5.982;2022-07-10T10:38:09;101348.13;;;19.61;51.86
36234;BME280;43467;50.890;5.982;2022-07-10T10:40:35;101338.84;;;19.53;51.89
36234;BME280;43467;50.890;5.982;2022-07-10T10:43:21;101348.94;;;19.35;52.65
36234;BME280;43467;50.890;5.982;2022-07-10T10:45:47;101342.72;;;19.20;52.82
36234;BME280;43467;50.890;5.982;2022-07-10T10:48:15;101346.00;;;19.11;53.38
36234;BME280;43467;50.890;5.982;2022-07-10T10:50:42;101347.03;;;19.09;53.66
36234;BME280;43467;50.890;5.982;2022-07-10T10:53:27;101339.00;;;19.09;53.59
36234;BME280;43467;50.890;5.982;2022-07-10T10:58:28;101336.09;;;19.12;53.87
36234;BME280;43467;50.890;5.982;2022-07-10T11:01:04;101336.31;;;19.09;54.02
36234;BME280;43467;50.890;5.982;2022-07-10T11:03:30;101330.53;;;19.29;54.16
36234;BME280;43467;50.890;5.982;2022-07-10T11:05:56;101329.72;;;19.41;53.75
36234;BME280;43467;50.890;5.982;2022-07-10T11:08:41;101329.81;;;19.68;52.77
36234;BME280;43467;50.890;5.982;2022-07-10T11:13:59;101321.22;;;19.75;52.92
36234;BME280;43467;50.890;5.982;2022-07-10T11:16:25;101324.06;;;19.86;52.64
36234;BME280;43467;50.890;5.982;2022-07-10T11:18:53;101334.53;;;19.77;52.55
36234;BME280;43467;50.890;5.982;2022-07-10T11:21:24;101320.31;;;19.62;53.22
36234;BME280;43467;50.890;5.982;2022-07-10T11:24:06;101330.19;;;19.62;53.17
36234;BME280;43467;50.890;5.982;2022-07-10T11:26:55;101322.78;;;19.65;53.42
36234;BME280;43467;50.890;5.982;2022-07-10T11:29:23;101316.38;;;19.68;52.91
36234;BME280;43467;50.890;5.982;2022-07-10T11:31:53;101317.25;;;19.81;53.25
36234;BME280;43467;50.890;5.982;2022-07-10T11:34:19;101305.31;;;20.12;53.04
36234;BME280;43467;50.890;5.982;2022-07-10T11:36:47;101303.22;;;20.29;51.80
36234;BME280;43467;50.890;5.982;2022-07-10T11:39:13;101313.13;;;20.29;52.57
36234;BME280;43467;50.890;5.982;2022-07-10T11:41:45;101298.91;;;20.39;51.41
36234;BME280;43467;50.890;5.982;2022-07-10T11:44:15;101307.50;;;20.32;51.39
36234;BME280;43467;50.890;5.982;2022-07-10T11:46:41;101285.53;;;20.13;52.37
36234;BME280;43467;50.890;5.982;2022-07-10T11:49:09;101294.47;;;20.13;52.50
36234;BME280;43467;50.890;5.982;2022-07-10T11:51:37;101292.06;;;19.96;52.90
36234;BME280;43467;50.890;5.982;2022-07-10T11:54:04;101299.72;;;19.75;53.15
36234;BME280;43467;50.890;5.982;2022-07-10T11:56:33;101291.16;;;19.83;53.31
36234;BME280;43467;50.890;5.982;2022-07-10T11:59:04;101292.31;;;19.79;53.50
36234;BME280;43467;50.890;5.982;2022-07-10T12:01:32;101292.09;;;19.82;53.68
36234;BME280;43467;50.890;5.982;2022-07-10T12:04:02;101287.19;;;19.88;52.82
36234;BME280;43467;50.890;5.982;2022-07-10T12:06:30;101288.00;;;20.16;52.36
36234;BME280;43467;50.890;5.982;2022-07-10T12:09:01;101280.16;;;20.25;52.05
36234;BME280;43467;50.890;5.982;2022-07-10T12:11:27;101288.00;;;20.28;52.02
36234;BME280;43467;50.890;5.982;2022-07-10T12:13:52;101289.91;;;20.14;51.76
36234;BME280;43467;50.890;5.982;2022-07-10T12:16:20;101292.03;;;20.35;51.25
36234;BME280;43467;50.890;5.982;2022-07-10T12:18:47;101285.47;;;20.39;51.43
36234;BME280;43467;50.890;5.982;2022-07-10T12:21:14;101278.88;;;20.31;51.29
36234;BME280;43467;50.890;5.982;2022-07-10T12:23:41;101286.09;;;20.43;51.27
36234;BME280;43467;50.890;5.982;2022-07-10T12:26:08;101282.78;;;20.39;51.23
36234;BME280;43467;50.890;5.982;2022-07-10T12:31:23;101298.97;;;20.13;52.46
36234;BME280;43467;50.890;5.982;2022-07-10T12:33:52;101297.50;;;19.94;53.30
36234;BME280;43467;50.890;5.982;2022-07-10T12:36:20;101294.69;;;19.83;53.95
36234;BME280;43467;50.890;5.982;2022-07-10T12:38:56;101291.31;;;20.07;53.75
36234;BME280;43467;50.890;5.982;2022-07-10T12:41:23;101292.19;;;20.20;53.40
36234;BME280;43467;50.890;5.982;2022-07-10T12:43:50;101302.41;;;20.15;52.65
36234;BME280;43467;50.890;5.982;2022-07-10T12:46:21;101298.38;;;20.47;52.62
36234;BME280;43467;50.890;5.982;2022-07-10T12:49:09;101287.84;;;20.69;51.68
36234;BME280;43467;50.890;5.982;2022-07-10T12:51:45;101285.53;;;20.88;51.21
36234;BME280;43467;50.890;5.982;2022-07-10T12:54:36;101277.84;;;21.08;51.28
36234;BME280;43467;50.890;5.982;2022-07-10T12:57:03;101272.38;;;20.97;50.80
36234;BME280;43467;50.890;5.982;2022-07-10T12:59:33;101275.06;;;20.97;51.26
36234;BME280;43467;50.890;5.982;2022-07-10T13:02:14;101272.88;;;20.65;51.83
36234;BME280;43467;50.890;5.982;2022-07-10T13:04:51;101267.78;;;20.86;51.48
36234;BME280;43467;50.890;5.982;2022-07-10T13:07:17;101259.50;;;20.76;51.18
36234;BME280;43467;50.890;5.982;2022-07-10T13:09:44;101267.69;;;21.11;50.54
36234;BME280;43467;50.890;5.982;2022-07-10T13:12:10;101265.81;;;21.13;50.07
36234;BME280;43467;50.890;5.982;2022-07-10T13:14:36;101268.78;;;21.21;50.46